sensor_id;sensor_type;location;lat;lon;timestamp;P1;durP1;ratioP1;P2;durP2;ratioP2
40995;SDS011;26723;57.478;12.066;2023-05-29T00:01:32;5.43;;;2.33;;
40995;SDS011;26723;57.478;12.066;2023-05-29T00:04:42;8.07;;;2.53;;
40995;SDS011;26723;57.478;12.066;2023-05-29T00:07:51;9.37;;;2.60;;
40995;SDS011;26723;57.478;12.066;2023-05-29T00:11:01;8.00;;;2.77;;
40995;SDS011;26723;57.478;12.066;2023-05-29T00:14:09;6.57;;;2.40;;
40995;SDS011;26723;57.478;12.066;2023-05-29T00:17:20;5.57;;;2.00;;
40995;SDS011;26723;57.478;12.066;2023-05-29T00:20:28;6.13;;;2.37;;
40995;SDS011;26723;57.478;12.066;2023-05-29T00:23:40;6.83;;;2.20;;
40995;SDS011;26723;57.478;12.066;2023-05-29T00:26:53;8.73;;;2.30;;
40995;SDS011;26723;57.478;12.066;2023-05-29T00:30:02;9.13;;;2.50;;
40995;SDS011;26723;57.478;12.066;2023-05-29T00:33:11;9.13;;;2.53;;
40995;SDS011;26723;57.478;12.066;2023-05-29T00:36:21;6.93;;;2.50;;
40995;SDS011;26723;57.478;12.066;2023-05-29T00:39:30;10.30;;;2.80;;
40995;SDS011;26723;57.478;12.066;2023-05-29T00:42:40;7.97;;;2.23;;
40995;SDS011;26723;57.478;12.066;2023-05-29T00:45:48;6.03;;;2.40;;
40995;SDS011;26723;57.478;12.066;2023-05-29T00:48:58;6.63;;;2.77;;
40995;SDS011;26723;57.478;12.066;2023-05-29T00:52:07;5.43;;;2.40;;
40995;SDS011;26723;57.478;12.066;2023-05-29T00:55:17;4.83;;;2.27;;
40995;SDS011;26723;57.478;12.066;2023-05-29T00:58:28;4.97;;;2.20;;
40995;SDS011;26723;57.478;12.066;2023-05-29T01:01:36;7.40;;;2.20;;
40995;SDS011;26723;57.478;12.066;2023-05-29T01:04:46;7.13;;;2.13;;
40995;SDS011;26723;57.478;12.066;2023-05-29T01:07:55;5.07;;;1.97;;
40995;SDS011;26723;57.478;12.066;2023-05-29T01:11:05;9.87;;;2.30;;
40995;SDS011;26723;57.478;12.066;2023-05-29T01:14:24;6.60;;;2.00;;
40995;SDS011;26723;57.478;12.066;2023-05-29T01:17:40;5.27;;;2.30;;
40995;SDS011;26723;57.478;12.066;2023-05-29T01:20:56;5.13;;;2.43;;
40995;SDS011;26723;57.478;12.066;2023-05-29T01:24:14;7.93;;;2.50;;
40995;SDS011;26723;57.478;12.066;2023-05-29T01:27:27;4.57;;;2.50;;
40995;SDS011;26723;57.478;12.066;2023-05-29T01:30:38;5.23;;;2.70;;
40995;SDS011;26723;57.478;12.066;2023-05-29T01:33:51;4.07;;;2.23;;
40995;SDS011;26723;57.478;12.066;2023-05-29T01:37:01;5.20;;;2.50;;
40995;SDS011;26723;57.478;12.066;2023-05-29T01:40:09;5.27;;;2.47;;
40995;SDS011;26723;57.478;12.066;2023-05-29T01:43:20;4.60;;;1.90;;
40995;SDS011;26723;57.478;12.066;2023-05-29T01:46:29;7.17;;;2.73;;
40995;SDS011;26723;57.478;12.066;2023-05-29T01:49:39;5.33;;;2.50;;
40995;SDS011;26723;57.478;12.066;2023-05-29T01:52:48;4.00;;;2.20;;
40995;SDS011;26723;57.478;12.066;2023-05-29T01:55:56;4.60;;;2.23;;
40995;SDS011;26723;57.478;12.066;2023-05-29T01:59:07;4.30;;;2.10;;
40995;SDS011;26723;57.478;12.066;2023-05-29T02:02:18;5.80;;;2.23;;
40995;SDS011;26723;57.478;12.066;2023-05-29T02:05:29;6.47;;;2.53;;
40995;SDS011;26723;57.478;12.066;2023-05-29T02:08:37;7.13;;;2.20;;
40995;SDS011;26723;57.478;12.066;2023-05-29T02:11:46;5.40;;;2.30;;
40995;SDS011;26723;57.478;12.066;2023-05-29T02:14:56;4.07;;;2.40;;
40995;SDS011;26723;57.478;12.066;2023-05-29T02:18:08;5.07;;;2.60;;
40995;SDS011;26723;57.478;12.066;2023-05-29T02:21:18;5.97;;;2.33;;
40995;SDS011;26723;57.478;12.066;2023-05-29T02:24:27;7.83;;;2.63;;
40995;SDS011;26723;57.478;12.066;2023-05-29T02:27:36;8.77;;;2.70;;
40995;SDS011;26723;57.478;12.066;2023-05-29T02:30:46;7.07;;;2.50;;
40995;SDS011;26723;57.478;12.066;2023-05-29T02:33:55;4.20;;;1.80;;
40995;SDS011;26723;57.478;12.066;2023-05-29T02:37:04;5.93;;;2.37;;
40995;SDS011;26723;57.478;12.066;2023-05-29T02:40:12;8.00;;;2.47;;
40995;SDS011;26723;57.478;12.066;2023-05-29T02:43:21;7.00;;;2.60;;
40995;SDS011;26723;57.478;12.066;2023-05-29T02:46:32;5.43;;;2.20;;
40995;SDS011;26723;57.478;12.066;2023-05-29T02:49:40;6.17;;;2.50;;
40995;SDS011;26723;57.478;12.066;2023-05-29T02:52:49;6.97;;;2.50;;
40995;SDS011;26723;57.478;12.066;2023-05-29T02:55:57;6.53;;;2.40;;
40995;SDS011;26723;57.478;12.066;2023-05-29T02:59:06;5.37;;;2.23;;
40995;SDS011;26723;57.478;12.066;2023-05-29T03:02:17;7.60;;;1.93;;
40995;SDS011;26723;57.478;12.066;2023-05-29T03:05:25;5.07;;;2.07;;
40995;SDS011;26723;57.478;12.066;2023-05-29T03:08:34;5.23;;;2.43;;
40995;SDS011;26723;57.478;12.066;2023-05-29T03:11:46;5.30;;;2.67;;
40995;SDS011;26723;57.478;12.066;2023-05-29T03:14:56;5.67;;;2.37;;
40995;SDS011;26723;57.478;12.066;2023-05-29T03:18:08;5.67;;;2.40;;
40995;SDS011;26723;57.478;12.066;2023-05-29T03:21:16;5.90;;;2.17;;
40995;SDS011;26723;57.478;12.066;2023-05-29T03:24:25;4.63;;;2.07;;
40995;SDS011;26723;57.478;12.066;2023-05-29T03:27:34;7.17;;;2.60;;
40995;SDS011;26723;57.478;12.066;2023-05-29T03:30:50;5.53;;;2.30;;
40995;SDS011;26723;57.478;12.066;2023-05-29T03:34:02;3.43;;;2.17;;
40995;SDS011;26723;57.478;12.066;2023-05-29T03:37:17;5.63;;;2.47;;
40995;SDS011;26723;57.478;12.066;2023-05-29T03:40:26;5.70;;;2.10;;
40995;SDS011;26723;57.478;12.066;2023-05-29T03:43:35;5.47;;;2.30;;
40995;SDS011;26723;57.478;12.066;2023-05-29T03:46:43;3.53;;;2.13;;
40995;SDS011;26723;57.478;12.066;2023-05-29T03:49:53;5.43;;;2.40;;
40995;SDS011;26723;57.478;12.066;2023-05-29T03:53:03;3.73;;;2.20;;
40995;SDS011;26723;57.478;12.066;2023-05-29T03:56:11;4.70;;;2.20;;
40995;SDS011;26723;57.478;12.066;2023-05-29T03:59:20;6.23;;;2.20;;
40995;SDS011;26723;57.478;12.066;2023-05-29T04:02:28;7.33;;;2.50;;
40995;SDS011;26723;57.478;12.066;2023-05-29T04:05:38;4.43;;;1.93;;
40995;SDS011;26723;57.478;12.066;2023-05-29T04:08:48;6.27;;;2.27;;
40995;SDS011;26723;57.478;12.066;2023-05-29T04:11:56;4.87;;;2.07;;
40995;SDS011;26723;57.478;12.066;2023-05-29T04:15:11;2.90;;;1.97;;
40995;SDS011;26723;57.478;12.066;2023-05-29T04:24:30;5.33;;;2.17;;
40995;SDS011;26723;57.478;12.066;2023-05-29T04:27:39;4.63;;;2.10;;
40995;SDS011;26723;57.478;12.066;2023-05-29T04:30:49;4.83;;;2.13;;
40995;SDS011;26723;57.478;12.066;2023-05-29T04:33:59;3.20;;;2.00;;
40995;SDS011;26723;57.478;12.066;2023-05-29T04:37:11;4.30;;;1.93;;
40995;SDS011;26723;57.478;12.066;2023-05-29T04:40:22;4.17;;;2.10;;
40995;SDS011;26723;57.478;12.066;2023-05-29T04:43:31;2.30;;;2.00;;
40995;SDS011;26723;57.478;12.066;2023-05-29T04:46:45;3.80;;;1.90;;
40995;SDS011;26723;57.478;12.066;2023-05-29T04:49:54;5.50;;;2.03;;
40995;SDS011;26723;57.478;12.066;2023-05-29T04:53:03;2.97;;;1.80;;
40995;SDS011;26723;57.478;12.066;2023-05-29T04:56:15;5.47;;;2.20;;
40995;SDS011;26723;57.478;12.066;2023-05-29T04:59:26;2.70;;;1.50;;
40995;SDS011;26723;57.478;12.066;2023-05-29T05:02:34;5.33;;;1.83;;
40995;SDS011;26723;57.478;12.066;2023-05-29T05:05:43;4.23;;;2.37;;
40995;SDS011;26723;57.478;12.066;2023-05-29T05:08:54;3.73;;;1.60;;
40995;SDS011;26723;57.478;12.066;2023-05-29T05:12:05;2.23;;;1.43;;
40995;SDS011;26723;57.478;12.066;2023-05-29T05:15:13;2.07;;;1.50;;
40995;SDS011;26723;57.478;12.066;2023-05-29T05:18:22;2.07;;;1.40;;
40995;SDS011;26723;57.478;12.066;2023-05-29T05:21:38;2.33;;;1.50;;
40995;SDS011;26723;57.478;12.066;2023-05-29T05:24:47;4.80;;;1.47;;
40995;SDS011;26723;57.478;12.066;2023-05-29T05:27:57;2.63;;;1.30;;
40995;SDS011;26723;57.478;12.066;2023-05-29T05:31:07;2.20;;;1.30;;
40995;SDS011;26723;57.478;12.066;2023-05-29T05:34:15;2.17;;;1.27;;
40995;SDS011;26723;57.478;12.066;2023-05-29T05:37:25;4.33;;;1.70;;
40995;SDS011;26723;57.478;12.066;2023-05-29T05:40:39;1.40;;;1.10;;
40995;SDS011;26723;57.478;12.066;2023-05-29T05:44:02;2.73;;;1.50;;
40995;SDS011;26723;57.478;12.066;2023-05-29T05:47:29;2.03;;;1.50;;
40995;SDS011;26723;57.478;12.066;2023-05-29T05:50:38;2.10;;;1.30;;
40995;SDS011;26723;57.478;12.066;2023-05-29T05:53:47;2.53;;;1.10;;
40995;SDS011;26723;57.478;12.066;2023-05-29T05:57:01;2.10;;;1.00;;
40995;SDS011;26723;57.478;12.066;2023-05-29T06:00:21;1.97;;;1.33;;
40995;SDS011;26723;57.478;12.066;2023-05-29T06:03:36;1.30;;;1.20;;
40995;SDS011;26723;57.478;12.066;2023-05-29T06:06:47;1.47;;;1.20;;
40995;SDS011;26723;57.478;12.066;2023-05-29T06:09:55;3.27;;;1.10;;
40995;SDS011;26723;57.478;12.066;2023-05-29T06:13:04;1.50;;;1.23;;
40995;SDS011;26723;57.478;12.066;2023-05-29T06:16:28;1.20;;;1.10;;
40995;SDS011;26723;57.478;12.066;2023-05-29T06:19:40;2.33;;;1.10;;
40995;SDS011;26723;57.478;12.066;2023-05-29T06:22:49;1.10;;;1.00;;
40995;SDS011;26723;57.478;12.066;2023-05-29T06:25:57;2.97;;;1.10;;
40995;SDS011;26723;57.478;12.066;2023-05-29T06:29:07;1.73;;;1.25;;
40995;SDS011;26723;57.478;12.066;2023-05-29T06:32:17;1.73;;;1.30;;
40995;SDS011;26723;57.478;12.066;2023-05-29T06:35:25;1.30;;;1.20;;
40995;SDS011;26723;57.478;12.066;2023-05-29T06:38:34;1.55;;;1.10;;
40995;SDS011;26723;57.478;12.066;2023-05-29T06:41:42;1.23;;;1.13;;
40995;SDS011;26723;57.478;12.066;2023-05-29T06:44:56;1.30;;;1.20;;
40995;SDS011;26723;57.478;12.066;2023-05-29T06:48:06;1.63;;;1.10;;
40995;SDS011;26723;57.478;12.066;2023-05-29T06:51:17;1.70;;;1.23;;
40995;SDS011;26723;57.478;12.066;2023-05-29T06:54:34;1.02;;;0.93;;
40995;SDS011;26723;57.478;12.066;2023-05-29T06:57:43;1.50;;;1.20;;
40995;SDS011;26723;57.478;12.066;2023-05-29T07:00:52;1.50;;;1.40;;
40995;SDS011;26723;57.478;12.066;2023-05-29T07:04:08;2.65;;;1.33;;
40995;SDS011;26723;57.478;12.066;2023-05-29T07:07:17;2.95;;;1.20;;
40995;SDS011;26723;57.478;12.066;2023-05-29T07:10:25;1.00;;;0.90;;
40995;SDS011;26723;57.478;12.066;2023-05-29T07:13:34;1.67;;;1.10;;
40995;SDS011;26723;57.478;12.066;2023-05-29T07:16:42;1.20;;;0.95;;
40995;SDS011;26723;57.478;12.066;2023-05-29T07:19:53;1.88;;;0.80;;
40995;SDS011;26723;57.478;12.066;2023-05-29T07:23:04;1.27;;;1.10;;
40995;SDS011;26723;57.478;12.066;2023-05-29T07:26:12;3.47;;;1.23;;
40995;SDS011;26723;57.478;12.066;2023-05-29T07:29:21;1.33;;;1.23;;
40995;SDS011;26723;57.478;12.066;2023-05-29T07:32:30;2.13;;;0.88;;
40995;SDS011;26723;57.478;12.066;2023-05-29T07:35:40;0.80;;;0.80;;
40995;SDS011;26723;57.478;12.066;2023-05-29T07:38:49;1.40;;;0.90;;
40995;SDS011;26723;57.478;12.066;2023-05-29T07:41:59;0.70;;;0.70;;
40995;SDS011;26723;57.478;12.066;2023-05-29T07:45:08;0.97;;;0.80;;
40995;SDS011;26723;57.478;12.066;2023-05-29T07:48:17;1.17;;;0.90;;
40995;SDS011;26723;57.478;12.066;2023-05-29T07:51:31;1.15;;;0.77;;
40995;SDS011;26723;57.478;12.066;2023-05-29T07:54:39;1.13;;;0.77;;
40995;SDS011;26723;57.478;12.066;2023-05-29T07:57:48;0.88;;;0.88;;
40995;SDS011;26723;57.478;12.066;2023-05-29T08:00:57;0.80;;;0.75;;
40995;SDS011;26723;57.478;12.066;2023-05-29T08:04:06;1.10;;;0.80;;
40995;SDS011;26723;57.478;12.066;2023-05-29T08:07:16;1.27;;;0.65;;
40995;SDS011;26723;57.478;12.066;2023-05-29T08:10:25;1.02;;;0.60;;
40995;SDS011;26723;57.478;12.066;2023-05-29T08:13:33;0.60;;;0.60;;
40995;SDS011;26723;57.478;12.066;2023-05-29T08:16:43;0.70;;;0.70;;
40995;SDS011;26723;57.478;12.066;2023-05-29T08:19:51;0.60;;;0.60;;
40995;SDS011;26723;57.478;12.066;2023-05-29T08:23:02;0.60;;;0.60;;
40995;SDS011;26723;57.478;12.066;2023-05-29T08:26:11;0.70;;;0.70;;
40995;SDS011;26723;57.478;12.066;2023-05-29T08:29:20;0.70;;;0.70;;
40995;SDS011;26723;57.478;12.066;2023-05-29T08:32:28;0.60;;;0.60;;
40995;SDS011;26723;57.478;12.066;2023-05-29T08:35:37;0.93;;;0.63;;
40995;SDS011;26723;57.478;12.066;2023-05-29T08:38:47;0.93;;;0.50;;
40995;SDS011;26723;57.478;12.066;2023-05-29T08:41:57;0.70;;;0.70;;
40995;SDS011;26723;57.478;12.066;2023-05-29T08:45:09;2.03;;;0.60;;
40995;SDS011;26723;57.478;12.066;2023-05-29T08:48:22;0.82;;;0.82;;
40995;SDS011;26723;57.478;12.066;2023-05-29T08:51:32;1.40;;;0.60;;
40995;SDS011;26723;57.478;12.066;2023-05-29T08:54:51;1.30;;;0.57;;
40995;SDS011;26723;57.478;12.066;2023-05-29T08:58:01;0.60;;;0.60;;
40995;SDS011;26723;57.478;12.066;2023-05-29T09:01:10;2.72;;;0.93;;
40995;SDS011;26723;57.478;12.066;2023-05-29T09:04:19;0.80;;;0.80;;
40995;SDS011;26723;57.478;12.066;2023-05-29T09:07:27;0.80;;;0.80;;
40995;SDS011;26723;57.478;12.066;2023-05-29T09:10:37;1.63;;;0.70;;
40995;SDS011;26723;57.478;12.066;2023-05-29T09:13:46;2.05;;;0.70;;
40995;SDS011;26723;57.478;12.066;2023-05-29T09:16:54;0.75;;;0.73;;
40995;SDS011;26723;57.478;12.066;2023-05-29T09:20:03;5.18;;;0.70;;
40995;SDS011;26723;57.478;12.066;2023-05-29T09:23:22;1.27;;;0.80;;
40995;SDS011;26723;57.478;12.066;2023-05-29T09:26:32;1.45;;;0.85;;
40995;SDS011;26723;57.478;12.066;2023-05-29T09:29:41;0.88;;;0.70;;
40995;SDS011;26723;57.478;12.066;2023-05-29T09:32:53;0.90;;;0.75;;
40995;SDS011;26723;57.478;12.066;2023-05-29T09:36:01;0.75;;;0.75;;
40995;SDS011;26723;57.478;12.066;2023-05-29T09:39:10;1.38;;;0.77;;
40995;SDS011;26723;57.478;12.066;2023-05-29T09:42:25;0.95;;;0.95;;
40995;SDS011;26723;57.478;12.066;2023-05-29T09:45:36;1.83;;;1.10;;
40995;SDS011;26723;57.478;12.066;2023-05-29T09:48:46;0.82;;;0.82;;
40995;SDS011;26723;57.478;12.066;2023-05-29T09:51:56;1.40;;;0.90;;
40995;SDS011;26723;57.478;12.066;2023-05-29T09:55:06;1.25;;;0.70;;
40995;SDS011;26723;57.478;12.066;2023-05-29T09:58:16;2.85;;;0.90;;
40995;SDS011;26723;57.478;12.066;2023-05-29T10:01:25;1.73;;;1.23;;
40995;SDS011;26723;57.478;12.066;2023-05-29T10:04:35;0.70;;;0.70;;
40995;SDS011;26723;57.478;12.066;2023-05-29T10:07:46;0.95;;;0.90;;
40995;SDS011;26723;57.478;12.066;2023-05-29T10:11:00;2.15;;;0.80;;
40995;SDS011;26723;57.478;12.066;2023-05-29T10:14:17;1.88;;;0.80;;
40995;SDS011;26723;57.478;12.066;2023-05-29T10:17:28;3.95;;;0.90;;
40995;SDS011;26723;57.478;12.066;2023-05-29T10:20:42;2.22;;;0.88;;
40995;SDS011;26723;57.478;12.066;2023-05-29T10:23:52;1.90;;;0.90;;
40995;SDS011;26723;57.478;12.066;2023-05-29T10:27:04;0.93;;;0.55;;
40995;SDS011;26723;57.478;12.066;2023-05-29T10:30:16;10.13;;;0.88;;
40995;SDS011;26723;57.478;12.066;2023-05-29T10:33:42;1.75;;;0.88;;
40995;SDS011;26723;57.478;12.066;2023-05-29T10:37:02;0.90;;;0.80;;
40995;SDS011;26723;57.478;12.066;2023-05-29T10:40:15;0.75;;;0.75;;
40995;SDS011;26723;57.478;12.066;2023-05-29T10:43:32;0.82;;;0.82;;
40995;SDS011;26723;57.478;12.066;2023-05-29T10:50:28;0.65;;;0.65;;
40995;SDS011;26723;57.478;12.066;2023-05-29T10:53:43;1.45;;;0.70;;
40995;SDS011;26723;57.478;12.066;2023-05-29T10:56:55;0.77;;;0.75;;
40995;SDS011;26723;57.478;12.066;2023-05-29T11:00:05;0.85;;;0.85;;
40995;SDS011;26723;57.478;12.066;2023-05-29T11:03:21;0.57;;;0.55;;
40995;SDS011;26723;57.478;12.066;2023-05-29T11:06:34;0.52;;;0.52;;
40995;SDS011;26723;57.478;12.066;2023-05-29T11:09:43;0.93;;;0.70;;
40995;SDS011;26723;57.478;12.066;2023-05-29T11:12:56;0.60;;;0.60;;
40995;SDS011;26723;57.478;12.066;2023-05-29T11:16:10;0.55;;;0.55;;
40995;SDS011;26723;57.478;12.066;2023-05-29T11:19:22;0.77;;;0.60;;
40995;SDS011;26723;57.478;12.066;2023-05-29T11:26:07;0.60;;;0.60;;
40995;SDS011;26723;57.478;12.066;2023-05-29T11:29:17;0.55;;;0.55;;
40995;SDS011;26723;57.478;12.066;2023-05-29T11:32:29;0.70;;;0.70;;
40995;SDS011;26723;57.478;12.066;2023-05-29T11:35:43;0.73;;;0.73;;
40995;SDS011;26723;57.478;12.066;2023-05-29T11:38:53;0.70;;;0.70;;
40995;SDS011;26723;57.478;12.066;2023-05-29T11:42:01;0.70;;;0.70;;
40995;SDS011;26723;57.478;12.066;2023-05-29T11:45:12;1.13;;;0.80;;
40995;SDS011;26723;57.478;12.066;2023-05-29T11:48:22;1.30;;;0.75;;
40995;SDS011;26723;57.478;12.066;2023-05-29T11:51:32;1.63;;;0.95;;
40995;SDS011;26723;57.478;12.066;2023-05-29T11:54:40;0.73;;;0.73;;
40995;SDS011;26723;57.478;12.066;2023-05-29T11:57:58;1.40;;;0.70;;
40995;SDS011;26723;57.478;12.066;2023-05-29T12:01:07;0.70;;;0.70;;
40995;SDS011;26723;57.478;12.066;2023-05-29T12:04:16;0.55;;;0.55;;
40995;SDS011;26723;57.478;12.066;2023-05-29T12:07:26;1.15;;;0.73;;
40995;SDS011;26723;57.478;12.066;2023-05-29T12:10:34;0.65;;;0.60;;
40995;SDS011;26723;57.478;12.066;2023-05-29T12:13:44;0.65;;;0.65;;
40995;SDS011;26723;57.478;12.066;2023-05-29T12:17:02;2.97;;;0.98;;
40995;SDS011;26723;57.478;12.066;2023-05-29T12:20:15;0.77;;;0.75;;
40995;SDS011;26723;57.478;12.066;2023-05-29T12:23:26;1.02;;;0.50;;
40995;SDS011;26723;57.478;12.066;2023-05-29T12:26:35;2.83;;;1.10;;
40995;SDS011;26723;57.478;12.066;2023-05-29T12:29:44;0.70;;;0.70;;
40995;SDS011;26723;57.478;12.066;2023-05-29T12:32:52;0.70;;;0.70;;
40995;SDS011;26723;57.478;12.066;2023-05-29T12:36:03;0.70;;;0.70;;
40995;SDS011;26723;57.478;12.066;2023-05-29T12:39:14;0.75;;;0.75;;
40995;SDS011;26723;57.478;12.066;2023-05-29T12:42:23;0.77;;;0.77;;
40995;SDS011;26723;57.478;12.066;2023-05-29T12:45:32;1.40;;;0.70;;
40995;SDS011;26723;57.478;12.066;2023-05-29T12:48:41;0.80;;;0.80;;
40995;SDS011;26723;57.478;12.066;2023-05-29T12:51:50;1.25;;;0.50;;
40995;SDS011;26723;57.478;12.066;2023-05-29T12:55:00;1.70;;;0.70;;
40995;SDS011;26723;57.478;12.066;2023-05-29T12:58:09;0.60;;;0.60;;
40995;SDS011;26723;57.478;12.066;2023-05-29T13:01:20;1.33;;;0.60;;
40995;SDS011;26723;57.478;12.066;2023-05-29T13:04:30;1.83;;;0.80;;
40995;SDS011;26723;57.478;12.066;2023-05-29T13:07:38;1.15;;;0.68;;
40995;SDS011;26723;57.478;12.066;2023-05-29T13:10:48;1.92;;;0.80;;
40995;SDS011;26723;57.478;12.066;2023-05-29T13:13:57;0.75;;;0.75;;
40995;SDS011;26723;57.478;12.066;2023-05-29T13:17:05;0.80;;;0.80;;
40995;SDS011;26723;57.478;12.066;2023-05-29T13:20:15;0.93;;;0.60;;
40995;SDS011;26723;57.478;12.066;2023-05-29T13:23:23;0.60;;;0.60;;
40995;SDS011;26723;57.478;12.066;2023-05-29T13:26:36;1.60;;;0.93;;
40995;SDS011;26723;57.478;12.066;2023-05-29T13:29:44;1.92;;;1.00;;
40995;SDS011;26723;57.478;12.066;2023-05-29T13:32:53;0.85;;;0.60;;
40995;SDS011;26723;57.478;12.066;2023-05-29T13:36:02;1.17;;;0.65;;
40995;SDS011;26723;57.478;12.066;2023-05-29T13:39:11;1.90;;;1.20;;
40995;SDS011;26723;57.478;12.066;2023-05-29T13:42:21;1.65;;;0.80;;
40995;SDS011;26723;57.478;12.066;2023-05-29T13:45:30;1.55;;;0.80;;
40995;SDS011;26723;57.478;12.066;2023-05-29T13:48:38;0.93;;;0.70;;
40995;SDS011;26723;57.478;12.066;2023-05-29T13:51:47;0.75;;;0.60;;
40995;SDS011;26723;57.478;12.066;2023-05-29T13:54:55;1.80;;;0.70;;
40995;SDS011;26723;57.478;12.066;2023-05-29T13:58:08;0.80;;;0.80;;
40995;SDS011;26723;57.478;12.066;2023-05-29T14:01:17;1.20;;;1.10;;
40995;SDS011;26723;57.478;12.066;2023-05-29T14:04:26;0.95;;;0.90;;
40995;SDS011;26723;57.478;12.066;2023-05-29T14:07:36;1.27;;;1.02;;
40995;SDS011;26723;57.478;12.066;2023-05-29T14:10:46;0.88;;;0.73;;
40995;SDS011;26723;57.478;12.066;2023-05-29T14:13:56;1.60;;;0.85;;
40995;SDS011;26723;57.478;12.066;2023-05-29T14:17:05;0.77;;;0.77;;
40995;SDS011;26723;57.478;12.066;2023-05-29T14:20:14;0.80;;;0.70;;
40995;SDS011;26723;57.478;12.066;2023-05-29T14:23:22;0.97;;;0.90;;
40995;SDS011;26723;57.478;12.066;2023-05-29T14:26:31;1.35;;;0.88;;
40995;SDS011;26723;57.478;12.066;2023-05-29T14:29:40;1.58;;;1.00;;
40995;SDS011;26723;57.478;12.066;2023-05-29T14:32:49;2.10;;;0.90;;
40995;SDS011;26723;57.478;12.066;2023-05-29T14:35:59;0.85;;;0.77;;
40995;SDS011;26723;57.478;12.066;2023-05-29T14:39:08;0.73;;;0.73;;
40995;SDS011;26723;57.478;12.066;2023-05-29T14:42:17;1.27;;;1.00;;
40995;SDS011;26723;57.478;12.066;2023-05-29T14:45:27;0.60;;;0.60;;
40995;SDS011;26723;57.478;12.066;2023-05-29T14:48:36;1.48;;;0.82;;
40995;SDS011;26723;57.478;12.066;2023-05-29T14:51:44;2.05;;;1.00;;
40995;SDS011;26723;57.478;12.066;2023-05-29T14:54:53;1.30;;;0.88;;
40995;SDS011;26723;57.478;12.066;2023-05-29T14:58:01;1.05;;;0.88;;
40995;SDS011;26723;57.478;12.066;2023-05-29T15:01:11;1.13;;;0.95;;
40995;SDS011;26723;57.478;12.066;2023-05-29T15:04:19;1.50;;;1.13;;
40995;SDS011;26723;57.478;12.066;2023-05-29T15:07:28;0.85;;;0.82;;
40995;SDS011;26723;57.478;12.066;2023-05-29T15:10:37;1.95;;;1.00;;
40995;SDS011;26723;57.478;12.066;2023-05-29T15:13:45;0.82;;;0.82;;
40995;SDS011;26723;57.478;12.066;2023-05-29T15:16:55;1.33;;;1.10;;
40995;SDS011;26723;57.478;12.066;2023-05-29T15:20:04;1.17;;;0.88;;
40995;SDS011;26723;57.478;12.066;2023-05-29T15:23:13;1.15;;;0.90;;
40995;SDS011;26723;57.478;12.066;2023-05-29T15:26:22;1.10;;;1.10;;
40995;SDS011;26723;57.478;12.066;2023-05-29T15:29:32;1.40;;;1.08;;
40995;SDS011;26723;57.478;12.066;2023-05-29T15:32:43;1.27;;;1.17;;
40995;SDS011;26723;57.478;12.066;2023-05-29T15:35:52;0.95;;;0.90;;
40995;SDS011;26723;57.478;12.066;2023-05-29T15:39:01;2.80;;;1.10;;
40995;SDS011;26723;57.478;12.066;2023-05-29T15:42:10;0.93;;;0.93;;
40995;SDS011;26723;57.478;12.066;2023-05-29T15:45:21;1.15;;;0.73;;
40995;SDS011;26723;57.478;12.066;2023-05-29T15:48:31;0.98;;;0.98;;
40995;SDS011;26723;57.478;12.066;2023-05-29T15:51:39;1.13;;;0.70;;
40995;SDS011;26723;57.478;12.066;2023-05-29T15:54:49;1.08;;;0.90;;
40995;SDS011;26723;57.478;12.066;2023-05-29T15:57:57;1.05;;;0.90;;
40995;SDS011;26723;57.478;12.066;2023-05-29T16:01:06;0.95;;;0.88;;
40995;SDS011;26723;57.478;12.066;2023-05-29T16:04:16;1.10;;;0.88;;
40995;SDS011;26723;57.478;12.066;2023-05-29T16:07:24;0.70;;;0.70;;
40995;SDS011;26723;57.478;12.066;2023-05-29T16:10:33;1.77;;;1.20;;
40995;SDS011;26723;57.478;12.066;2023-05-29T16:13:42;1.08;;;0.98;;
40995;SDS011;26723;57.478;12.066;2023-05-29T16:16:51;1.30;;;1.00;;
40995;SDS011;26723;57.478;12.066;2023-05-29T16:20:01;1.10;;;1.00;;
40995;SDS011;26723;57.478;12.066;2023-05-29T16:23:11;2.53;;;1.20;;
40995;SDS011;26723;57.478;12.066;2023-05-29T16:26:19;2.90;;;1.30;;
40995;SDS011;26723;57.478;12.066;2023-05-29T16:29:28;1.83;;;1.40;;
40995;SDS011;26723;57.478;12.066;2023-05-29T16:32:37;2.75;;;1.40;;
40995;SDS011;26723;57.478;12.066;2023-05-29T16:35:47;1.38;;;0.90;;
40995;SDS011;26723;57.478;12.066;2023-05-29T16:38:56;1.95;;;1.08;;
40995;SDS011;26723;57.478;12.066;2023-05-29T16:42:05;2.08;;;1.40;;
40995;SDS011;26723;57.478;12.066;2023-05-29T16:45:15;1.58;;;1.23;;
40995;SDS011;26723;57.478;12.066;2023-05-29T16:48:23;1.38;;;1.17;;
40995;SDS011;26723;57.478;12.066;2023-05-29T16:51:33;1.15;;;1.10;;
40995;SDS011;26723;57.478;12.066;2023-05-29T16:54:42;1.75;;;1.20;;
40995;SDS011;26723;57.478;12.066;2023-05-29T16:57:51;3.88;;;1.40;;
40995;SDS011;26723;57.478;12.066;2023-05-29T17:00:59;3.40;;;1.25;;
40995;SDS011;26723;57.478;12.066;2023-05-29T17:04:08;2.00;;;1.52;;
40995;SDS011;26723;57.478;12.066;2023-05-29T17:07:19;3.20;;;1.25;;
40995;SDS011;26723;57.478;12.066;2023-05-29T17:10:30;3.13;;;1.42;;
40995;SDS011;26723;57.478;12.066;2023-05-29T17:13:40;0.98;;;0.98;;
40995;SDS011;26723;57.478;12.066;2023-05-29T17:16:49;3.05;;;1.23;;
40995;SDS011;26723;57.478;12.066;2023-05-29T17:20:03;1.45;;;1.23;;
40995;SDS011;26723;57.478;12.066;2023-05-29T17:23:14;2.45;;;1.30;;
40995;SDS011;26723;57.478;12.066;2023-05-29T17:26:24;2.70;;;1.48;;
40995;SDS011;26723;57.478;12.066;2023-05-29T17:29:33;2.58;;;1.30;;
40995;SDS011;26723;57.478;12.066;2023-05-29T17:32:47;2.05;;;0.98;;
40995;SDS011;26723;57.478;12.066;2023-05-29T17:35:56;2.45;;;1.27;;
40995;SDS011;26723;57.478;12.066;2023-05-29T17:39:06;1.42;;;1.20;;
40995;SDS011;26723;57.478;12.066;2023-05-29T17:42:15;2.20;;;1.25;;
40995;SDS011;26723;57.478;12.066;2023-05-29T17:45:24;1.38;;;1.13;;
40995;SDS011;26723;57.478;12.066;2023-05-29T17:48:33;2.30;;;1.20;;
40995;SDS011;26723;57.478;12.066;2023-05-29T17:51:41;4.10;;;1.30;;
40995;SDS011;26723;57.478;12.066;2023-05-29T17:54:52;2.90;;;1.30;;
40995;SDS011;26723;57.478;12.066;2023-05-29T17:58:02;2.08;;;1.40;;
40995;SDS011;26723;57.478;12.066;2023-05-29T18:01:11;2.25;;;1.20;;
40995;SDS011;26723;57.478;12.066;2023-05-29T18:04:20;1.38;;;1.25;;
40995;SDS011;26723;57.478;12.066;2023-05-29T18:07:28;4.47;;;1.30;;
40995;SDS011;26723;57.478;12.066;2023-05-29T18:10:38;2.78;;;1.58;;
40995;SDS011;26723;57.478;12.066;2023-05-29T18:13:47;1.77;;;1.20;;
40995;SDS011;26723;57.478;12.066;2023-05-29T18:16:56;2.33;;;1.40;;
40995;SDS011;26723;57.478;12.066;2023-05-29T18:20:05;1.80;;;1.27;;
40995;SDS011;26723;57.478;12.066;2023-05-29T18:23:16;3.38;;;1.35;;
40995;SDS011;26723;57.478;12.066;2023-05-29T18:26:26;2.33;;;1.60;;
40995;SDS011;26723;57.478;12.066;2023-05-29T18:29:35;2.47;;;1.43;;
40995;SDS011;26723;57.478;12.066;2023-05-29T18:32:45;3.58;;;1.48;;
40995;SDS011;26723;57.478;12.066;2023-05-29T18:35:55;1.63;;;1.20;;
40995;SDS011;26723;57.478;12.066;2023-05-29T18:39:03;2.08;;;1.60;;
40995;SDS011;26723;57.478;12.066;2023-05-29T18:42:15;2.33;;;1.38;;
40995;SDS011;26723;57.478;12.066;2023-05-29T18:45:23;2.65;;;1.55;;
40995;SDS011;26723;57.478;12.066;2023-05-29T18:48:32;3.50;;;1.30;;
40995;SDS011;26723;57.478;12.066;2023-05-29T18:51:40;1.98;;;1.38;;
40995;SDS011;26723;57.478;12.066;2023-05-29T18:54:49;1.50;;;1.30;;
40995;SDS011;26723;57.478;12.066;2023-05-29T18:57:59;3.50;;;1.45;;
40995;SDS011;26723;57.478;12.066;2023-05-29T19:01:09;3.53;;;1.27;;